createdAt,value
2019-02-12T00:01:17.832Z,3.30
2019-02-12T00:03:46.943Z,3.30
2019-02-12T00:06:16.630Z,3.50
2019-02-12T00:08:45.720Z,3.50
2019-02-12T00:11:14.821Z,3.50
2019-02-12T00:13:44.206Z,3.50
2019-02-12T00:16:13.314Z,3.50
2019-02-12T00:18:42.482Z,3.60
2019-02-12T00:21:11.566Z,3.80
2019-02-12T00:23:40.666Z,3.90
2019-02-12T00:26:09.795Z,3.90
2019-02-12T00:28:39.170Z,4.00
2019-02-12T00:31:08.525Z,4.10
2019-02-12T00:33:37.647Z,4.00
2019-02-12T00:36:07.038Z,4.00
2019-02-12T00:38:36.121Z,4.00
2019-02-12T00:41:05.225Z,4.00
2019-02-12T00:43:34.901Z,4.00
2019-02-12T00:46:04.021Z,3.90
2019-02-12T00:48:33.179Z,3.90
2019-02-12T00:51:02.358Z,3.90
2019-02-12T00:53:31.437Z,3.90
2019-02-12T00:56:00.549Z,3.80
2019-02-12T00:58:29.656Z,3.80
2019-02-12T01:00:59.591Z,3.80
2019-02-12T01:03:28.702Z,3.80
2019-02-12T01:05:58.087Z,3.80
2019-02-12T01:08:27.437Z,3.80
2019-02-12T01:10:56.803Z,3.80
2019-02-12T01:13:26.550Z,3.80
2019-02-12T01:15:55.762Z,3.80
2019-02-12T01:18:24.854Z,3.80
2019-02-12T01:20:53.971Z,3.80
2019-02-12T01:23:23.450Z,3.80
2019-02-12T01:25:52.545Z,3.90
2019-02-12T01:28:21.915Z,4.00
2019-02-12T01:30:53.136Z,4.10
2019-02-12T01:33:22.826Z,4.20
2019-02-12T01:35:51.931Z,4.20
2019-02-12T01:38:21.335Z,4.10
2019-02-12T01:40:50.413Z,4.20
2019-02-12T01:43:19.500Z,4.20
2019-02-12T01:45:48.630Z,4.20
2019-02-12T01:48:18.020Z,4.30
2019-02-12T01:50:47.118Z,4.30
2019-02-12T01:53:16.479Z,4.20
2019-02-12T01:55:45.866Z,4.20
2019-02-12T01:58:14.964Z,4.10
2019-02-12T02:00:44.292Z,4.30
2019-02-12T02:03:13.397Z,4.30
2019-02-12T02:05:46.091Z,4.20
2019-02-12T02:08:15.229Z,4.10
2019-02-12T02:10:44.341Z,4.10
2019-02-12T02:13:13.728Z,4.00
2019-02-12T02:15:43.216Z,4.00
2019-02-12T02:18:12.339Z,4.00
2019-02-12T02:20:41.482Z,4.00
2019-02-12T02:23:10.928Z,3.90
2019-02-12T02:25:40.313Z,3.90
2019-02-12T02:28:09.439Z,4.00
2019-02-12T02:30:39.582Z,4.00
2019-02-12T02:33:08.959Z,3.90
2019-02-12T02:35:38.675Z,3.90
2019-02-12T02:38:07.771Z,3.80
2019-02-12T02:40:36.891Z,3.60
2019-02-12T02:43:06.004Z,3.60
2019-02-12T02:45:35.391Z,3.70
2019-02-12T02:48:04.859Z,3.60
2019-02-12T02:50:33.975Z,3.60
2019-02-12T02:53:03.449Z,3.60
2019-02-12T02:55:32.645Z,3.70
2019-02-12T02:58:01.796Z,3.70
2019-02-12T03:00:30.959Z,3.70
2019-02-12T03:03:00.076Z,3.80
2019-02-12T03:05:29.284Z,3.90
2019-02-12T03:07:58.462Z,3.90
2019-02-12T03:10:27.661Z,4.00
2019-02-12T03:12:57.411Z,3.90
2019-02-12T03:15:26.524Z,3.90
2019-02-12T03:17:55.660Z,4.00
2019-02-12T03:20:24.771Z,4.00
2019-02-12T03:22:54.207Z,4.00
2019-02-12T03:25:23.422Z,4.10
2019-02-12T03:27:52.622Z,4.20
2019-02-12T03:30:21.733Z,4.30
2019-02-12T03:32:50.823Z,4.20
2019-02-12T03:35:20.216Z,4.30
2019-02-12T03:37:49.352Z,4.30
2019-02-12T03:40:18.479Z,4.30
2019-02-12T03:42:47.586Z,4.40
2019-02-12T03:45:17.015Z,4.40
2019-02-12T03:47:46.465Z,4.30
2019-02-12T03:50:15.576Z,4.40
2019-02-12T03:52:45.002Z,4.30
2019-02-12T03:55:14.421Z,4.30
2019-02-12T03:57:43.527Z,4.30
2019-02-12T04:00:13.961Z,4.20
2019-02-12T04:03:00.444Z,4.20
2019-02-12T04:05:29.559Z,4.10
2019-02-12T04:07:58.932Z,4.20
2019-02-12T04:10:28.304Z,4.10
2019-02-12T04:12:57.407Z,4.10
2019-02-12T04:15:26.520Z,4.00
2019-02-12T04:17:55.642Z,4.00
2019-02-12T04:20:24.731Z,4.00
2019-02-12T04:22:54.083Z,3.90
2019-02-12T04:25:23.454Z,3.80
2019-02-12T04:27:52.552Z,3.70
2019-02-12T04:30:22.228Z,3.80
2019-02-12T04:32:51.353Z,3.80
2019-02-12T04:35:20.768Z,4.00
2019-02-12T04:37:49.901Z,3.90
2019-02-12T04:40:19.271Z,3.90
2019-02-12T04:42:48.384Z,4.00
2019-02-12T04:45:17.503Z,3.90
2019-02-12T04:47:46.886Z,3.90
2019-02-12T04:50:16.004Z,4.00
2019-02-12T04:52:45.100Z,4.00
2019-02-12T04:55:14.493Z,4.00
2019-02-12T04:57:43.584Z,4.10
2019-02-12T05:00:14.014Z,4.20
2019-02-12T05:02:43.169Z,4.20
2019-02-12T05:05:12.289Z,4.20
2019-02-12T05:07:41.801Z,4.10
2019-02-12T05:10:12.385Z,4.10
2019-02-12T05:12:41.485Z,4.10
2019-02-12T05:15:11.059Z,4.10
2019-02-12T05:17:40.512Z,4.10
2019-02-12T05:20:11.685Z,4.20
2019-02-12T05:22:43.445Z,4.20
2019-02-12T05:25:11.712Z,4.20
2019-02-12T05:27:40.858Z,4.20
2019-02-12T05:30:10.971Z,4.20
2019-02-12T05:32:40.080Z,4.30
2019-02-12T05:35:09.600Z,4.20
2019-02-12T05:37:38.968Z,4.20
2019-02-12T05:40:08.960Z,4.20
2019-02-12T05:42:38.074Z,4.10
2019-02-12T05:45:08.286Z,4.20
2019-02-12T05:47:37.442Z,4.10
2019-02-12T05:50:09.072Z,4.20
2019-02-12T05:52:38.591Z,4.30
2019-02-12T05:55:07.816Z,4.30
2019-02-12T05:57:37.443Z,4.30
2019-02-12T06:00:09.174Z,4.40
2019-02-12T06:02:38.298Z,4.40
2019-02-12T06:05:07.451Z,4.50
2019-02-12T06:07:36.544Z,4.50
2019-02-12T06:10:06.228Z,4.50
2019-02-12T06:12:35.397Z,4.30
2019-02-12T06:15:05.090Z,4.20
2019-02-12T06:17:34.531Z,4.20
2019-02-12T06:20:04.004Z,4.30
2019-02-12T06:22:33.364Z,4.20
2019-02-12T06:25:02.693Z,4.20
2019-02-12T06:27:32.433Z,4.20
2019-02-12T06:30:01.628Z,4.20
2019-02-12T06:32:31.136Z,4.20
2019-02-12T06:35:00.245Z,4.20
2019-02-12T06:37:29.660Z,4.30
2019-02-12T06:39:58.820Z,4.30
2019-02-12T06:42:27.916Z,4.30
2019-02-12T06:44:57.093Z,4.40
2019-02-12T06:47:26.202Z,4.30
2019-02-12T06:49:55.314Z,4.40
2019-02-12T06:52:24.731Z,4.40
2019-02-12T06:54:54.095Z,4.40
2019-02-12T06:57:23.231Z,4.40
2019-02-12T06:59:52.336Z,4.40
2019-02-12T07:02:56.993Z,4.40
2019-02-12T07:05:26.558Z,4.40
2019-02-12T07:08:39.244Z,4.40
2019-02-12T07:11:42.620Z,4.40
2019-02-12T07:14:26.850Z,4.40
2019-02-12T07:17:23.055Z,4.40
2019-02-12T07:20:36.219Z,4.30
2019-02-12T07:23:48.031Z,4.40
2019-02-12T07:27:01.112Z,4.40
2019-02-12T07:30:11.266Z,4.40
2019-02-12T07:33:17.530Z,4.40
2019-02-12T07:36:46.159Z,4.30
2019-02-12T07:39:38.960Z,4.40
2019-02-12T07:42:46.390Z,4.40
2019-02-12T07:46:05.503Z,4.40
2019-02-12T07:49:07.139Z,4.50
2019-02-12T07:52:32.937Z,4.40
2019-02-12T07:55:38.518Z,4.40
2019-02-12T07:58:51.642Z,4.30
2019-02-12T08:01:55.848Z,4.30
2019-02-12T08:04:57.651Z,4.30
2019-02-12T08:07:58.358Z,4.30
2019-02-12T08:11:10.045Z,4.30
2019-02-12T08:14:31.006Z,4.30
2019-02-12T08:17:47.111Z,4.30
2019-02-12T08:20:56.653Z,4.30
2019-02-12T08:24:00.418Z,4.50
2019-02-12T08:27:08.970Z,4.40
2019-02-12T08:30:03.896Z,4.50
2019-02-12T08:32:58.420Z,4.60
2019-02-12T08:36:04.255Z,4.60
2019-02-12T08:38:54.767Z,4.60
2019-02-12T08:41:59.091Z,4.70
2019-02-12T08:44:40.150Z,4.70
2019-02-12T08:47:37.207Z,4.70
2019-02-12T08:50:36.049Z,4.70
2019-02-12T08:53:50.082Z,4.80
2019-02-12T08:56:40.207Z,4.90
2019-02-12T08:59:41.419Z,4.90
2019-02-12T09:02:51.792Z,5.00
2019-02-12T09:06:14.023Z,5.00
2019-02-12T09:08:58.147Z,5.20
2019-02-12T09:12:29.197Z,5.20
2019-02-12T09:15:26.748Z,5.30
2019-02-12T09:18:05.299Z,5.40
2019-02-12T09:21:14.123Z,5.40
2019-02-12T09:24:14.192Z,5.50
2019-02-12T09:27:03.994Z,5.40
2019-02-12T09:29:53.049Z,5.30
2019-02-12T09:33:09.824Z,5.30
2019-02-12T09:36:28.939Z,5.50
2019-02-12T09:39:37.695Z,5.50
2019-02-12T09:42:29.600Z,5.50
2019-02-12T09:45:15.799Z,5.50
2019-02-12T09:48:18.778Z,5.50
2019-02-12T09:51:24.760Z,5.50
2019-02-12T09:54:36.686Z,5.50
2019-02-12T09:57:40.504Z,5.60
2019-02-12T10:00:34.174Z,5.70
2019-02-12T10:03:45.858Z,5.70
2019-02-12T10:06:31.415Z,5.70
2019-02-12T10:09:36.085Z,5.70
2019-02-12T10:12:33.984Z,5.80
2019-02-12T10:15:33.979Z,5.80
2019-02-12T10:18:49.364Z,5.80
2019-02-12T10:21:46.043Z,5.90
2019-02-12T10:24:58.463Z,5.90
2019-02-12T10:28:09.584Z,5.90
2019-02-12T10:30:50.151Z,6.00
2019-02-12T10:33:19.331Z,6.00
2019-02-12T10:35:48.718Z,6.10
2019-02-12T10:38:18.088Z,6.10
2019-02-12T10:40:47.196Z,6.00
2019-02-12T10:43:16.276Z,5.90
2019-02-12T10:45:45.645Z,5.90
2019-02-12T10:48:14.753Z,5.90
2019-02-12T10:50:43.828Z,5.90
2019-02-12T10:53:12.920Z,5.90
2019-02-12T10:55:42.094Z,6.00
2019-02-12T10:58:11.267Z,6.00
2019-02-12T11:00:40.604Z,6.10
2019-02-12T11:03:09.715Z,6.10
2019-02-12T11:05:38.804Z,6.10
2019-02-12T11:08:08.177Z,6.10
2019-02-12T11:10:37.305Z,6.00
2019-02-12T11:13:06.439Z,6.10
2019-02-12T11:15:35.804Z,6.20
2019-02-12T11:18:05.162Z,6.20
2019-02-12T11:20:34.360Z,6.20
2019-02-12T11:23:04.083Z,6.20
2019-02-12T11:25:33.515Z,6.20
2019-02-12T11:28:02.615Z,6.30
2019-02-12T11:30:31.783Z,6.30
2019-02-12T11:33:00.915Z,6.30
2019-02-12T11:35:30.001Z,6.30
2019-02-12T11:37:59.109Z,6.40
2019-02-12T11:40:28.550Z,6.40
2019-02-12T11:42:57.998Z,6.40
2019-02-12T11:45:27.440Z,6.30
2019-02-12T11:47:56.560Z,6.30
2019-02-12T11:50:25.663Z,6.20
2019-02-12T11:52:54.841Z,6.20
2019-02-12T11:55:24.012Z,6.30
2019-02-12T11:57:53.122Z,6.40
2019-02-12T12:00:27.074Z,6.40
2019-02-12T12:02:56.466Z,6.40
2019-02-12T12:05:25.655Z,6.50
2019-02-12T12:07:54.804Z,6.60
2019-02-12T12:10:24.200Z,6.60
2019-02-12T12:12:54.125Z,6.60
2019-02-12T12:15:23.992Z,6.70
2019-02-12T12:17:53.421Z,6.80
2019-02-12T12:20:22.801Z,6.90
2019-02-12T12:22:51.983Z,7.10
2019-02-12T12:25:21.367Z,7.20
2019-02-12T12:27:50.507Z,7.20
2019-02-12T12:30:19.713Z,7.20
2019-02-12T12:32:51.551Z,7.20
2019-02-12T12:35:20.639Z,7.10
2019-02-12T12:37:49.782Z,7.10
2019-02-12T12:40:19.008Z,7.10
2019-02-12T12:42:48.132Z,7.10
2019-02-12T12:45:17.508Z,7.10
2019-02-12T12:47:46.678Z,7.10
2019-02-12T12:50:15.776Z,7.10
2019-02-12T12:52:44.895Z,7.10
2019-02-12T12:55:14.267Z,7.10
2019-02-12T12:57:43.661Z,7.20
2019-02-12T13:00:13.364Z,7.40
2019-02-12T13:02:42.745Z,7.50
2019-02-12T13:05:11.967Z,7.60
2019-02-12T13:07:41.390Z,7.70
2019-02-12T13:10:12.477Z,7.80
2019-02-12T13:12:41.601Z,8.00
2019-02-12T13:15:11.923Z,8.10
2019-02-12T13:17:41.336Z,8.10
2019-02-12T13:20:12.730Z,8.20
2019-02-12T13:22:41.941Z,8.40
2019-02-12T13:25:11.710Z,8.30
2019-02-12T13:27:41.089Z,8.20
2019-02-12T13:30:13.113Z,8.10
2019-02-12T13:32:42.508Z,7.90
2019-02-12T13:35:13.150Z,8.00
2019-02-12T13:37:42.288Z,7.90
2019-02-12T13:40:12.053Z,7.70
2019-02-12T13:42:41.259Z,7.70
2019-02-12T13:45:12.308Z,7.60
2019-02-12T13:47:41.748Z,7.60
2019-02-12T13:50:11.195Z,7.60
2019-02-12T13:52:40.326Z,7.60
2019-02-12T13:55:17.003Z,7.60
2019-02-12T13:57:40.398Z,7.80
2019-02-12T14:00:11.223Z,7.90
2019-02-12T14:02:40.332Z,7.90
2019-02-12T14:05:12.274Z,8.00
2019-02-12T14:07:41.559Z,7.90
2019-02-12T14:10:10.800Z,7.90
2019-02-12T14:12:40.178Z,7.90
2019-02-12T14:15:10.643Z,7.90
2019-02-12T14:17:39.803Z,7.80
2019-02-12T14:20:11.011Z,7.90
2019-02-12T14:22:40.413Z,8.00
2019-02-12T14:25:10.361Z,8.10
2019-02-12T14:27:39.487Z,8.10
2019-02-12T14:30:10.604Z,8.00
2019-02-12T14:32:39.718Z,7.90
2019-02-12T14:35:09.508Z,7.90
2019-02-12T14:37:38.953Z,8.00
2019-02-12T14:40:09.395Z,8.00
2019-02-12T14:42:38.816Z,8.00
2019-02-12T14:45:09.767Z,8.00
2019-02-12T14:47:38.897Z,7.80
2019-02-12T14:50:09.194Z,7.70
2019-02-12T14:52:38.579Z,7.80
2019-02-12T14:55:07.695Z,7.80
2019-02-12T14:57:36.900Z,7.80
2019-02-12T15:00:07.019Z,7.70
2019-02-12T15:02:36.637Z,7.80
2019-02-12T15:05:06.395Z,7.80
2019-02-12T15:07:35.511Z,7.70
2019-02-12T15:10:04.948Z,7.70
2019-02-12T15:12:34.654Z,7.70
2019-02-12T15:15:04.356Z,7.70
2019-02-12T15:17:33.763Z,7.70
2019-02-12T15:20:03.240Z,7.70
2019-02-12T15:22:32.356Z,7.70
2019-02-12T15:25:01.457Z,7.60
2019-02-12T15:27:30.851Z,7.60
2019-02-12T15:29:59.952Z,7.70
2019-02-12T15:32:29.155Z,7.80
2019-02-12T15:34:58.272Z,7.80
2019-02-12T15:37:27.376Z,7.80
2019-02-12T15:39:56.603Z,7.80
2019-02-12T15:42:25.932Z,7.70
2019-02-12T15:44:55.155Z,7.70
2019-02-12T15:47:24.614Z,7.60
2019-02-12T15:49:54.044Z,7.60
2019-02-12T15:52:23.167Z,7.50
2019-02-12T15:54:52.242Z,7.50
2019-02-12T15:57:22.680Z,7.50
2019-02-12T15:59:54.053Z,7.40
2019-02-12T16:02:23.340Z,7.50
2019-02-12T16:04:52.492Z,7.40
2019-02-12T16:07:22.438Z,7.30
2019-02-12T16:09:53.303Z,7.30
2019-02-12T16:12:24.387Z,7.30
2019-02-12T16:14:54.468Z,7.30
2019-02-12T16:17:23.692Z,7.30
2019-02-12T16:19:53.124Z,7.30
2019-02-12T16:22:22.229Z,7.30
2019-02-12T16:24:51.643Z,7.30
2019-02-12T16:27:20.774Z,7.10
2019-02-12T16:29:50.219Z,7.20
2019-02-12T16:32:19.407Z,7.20
2019-02-12T16:34:48.520Z,7.10
2019-02-12T16:37:17.684Z,7.10
2019-02-12T16:39:46.973Z,7.00
2019-02-12T16:42:17.062Z,7.10
2019-02-12T16:44:46.325Z,7.10
2019-02-12T16:47:15.502Z,7.20
2019-02-12T16:49:45.014Z,7.10
2019-02-12T16:52:20.636Z,7.10
2019-02-12T16:54:45.323Z,7.00
2019-02-12T16:57:14.700Z,7.00
2019-02-12T16:59:44.136Z,6.90
2019-02-12T17:02:13.498Z,7.00
2019-02-12T17:04:42.656Z,6.90
2019-02-12T17:07:11.834Z,6.90
2019-02-12T17:09:41.215Z,6.90
2019-02-12T17:12:10.501Z,6.90
2019-02-12T17:14:39.944Z,6.80
2019-02-12T17:17:09.135Z,6.80
2019-02-12T17:19:38.561Z,6.60
2019-02-12T17:22:07.668Z,6.60
2019-02-12T17:24:36.790Z,6.50
2019-02-12T17:27:05.999Z,6.40
2019-02-12T17:29:35.756Z,6.30
2019-02-12T17:32:05.005Z,6.40
2019-02-12T17:34:34.172Z,6.30
2019-02-12T17:37:03.542Z,6.30
2019-02-12T17:39:33.177Z,6.40
2019-02-12T17:42:02.599Z,6.40
2019-02-12T17:44:31.806Z,6.40
2019-02-12T17:47:00.969Z,6.40
2019-02-12T17:49:30.079Z,6.40
2019-02-12T17:51:59.288Z,6.30
2019-02-12T17:54:28.832Z,6.30
2019-02-12T17:57:01.026Z,6.30
2019-02-12T17:59:30.232Z,6.20
2019-02-12T18:02:03.189Z,6.20
2019-02-12T18:04:32.548Z,6.20
2019-02-12T18:07:02.016Z,6.10
2019-02-12T18:09:31.256Z,6.00
2019-02-12T18:12:00.681Z,5.90
2019-02-12T18:14:30.104Z,5.90
2019-02-12T18:16:59.916Z,5.90
2019-02-12T18:19:29.030Z,5.90
2019-02-12T18:21:58.484Z,5.90
2019-02-12T18:24:27.922Z,5.80
2019-02-12T18:26:57.101Z,5.80
2019-02-12T18:29:28.446Z,5.80
2019-02-12T18:31:57.592Z,5.60
2019-02-12T18:34:26.700Z,5.60
2019-02-12T18:36:56.175Z,5.60
2019-02-12T18:39:25.653Z,5.60
2019-02-12T18:41:54.852Z,5.60
2019-02-12T18:44:24.322Z,5.60
2019-02-12T18:46:53.552Z,5.60
2019-02-12T18:49:22.684Z,5.50
2019-02-12T18:51:52.094Z,5.40
2019-02-12T18:54:21.372Z,5.40
2019-02-12T18:56:50.473Z,5.50
2019-02-12T18:59:20.131Z,5.50
2019-02-12T19:01:49.299Z,5.50
2019-02-12T19:04:18.828Z,5.50
2019-02-12T19:06:48.059Z,5.60
2019-02-12T19:09:17.567Z,5.40
2019-02-12T19:11:54.203Z,5.40
2019-02-12T19:14:18.211Z,5.50
2019-02-12T19:16:47.761Z,5.50
2019-02-12T19:19:17.230Z,5.40
2019-02-12T19:21:46.335Z,5.40
2019-02-12T19:24:15.660Z,5.40
2019-02-12T19:26:49.901Z,5.50
2019-02-12T19:29:15.936Z,5.50
2019-02-12T19:31:45.061Z,5.50
2019-02-12T19:34:14.781Z,5.50
2019-02-12T19:36:43.951Z,5.40
2019-02-12T19:39:13.131Z,5.40
2019-02-12T19:41:42.334Z,5.30
2019-02-12T19:44:11.775Z,5.30
2019-02-12T19:46:41.064Z,5.10
2019-02-12T19:49:10.468Z,5.10
2019-02-12T19:51:39.643Z,5.00
2019-02-12T19:54:08.759Z,4.90
2019-02-12T19:56:37.996Z,4.90
2019-02-12T19:59:07.359Z,4.90
2019-02-12T20:01:36.886Z,4.70
2019-02-12T20:04:06.463Z,4.70
2019-02-12T20:06:36.150Z,4.80
2019-02-12T20:09:09.223Z,4.80
2019-02-12T20:11:38.460Z,4.70
2019-02-12T20:14:09.063Z,4.70
2019-02-12T20:16:38.617Z,4.60
2019-02-12T20:19:08.255Z,4.60
2019-02-12T20:21:37.566Z,4.60
2019-02-12T20:24:07.240Z,4.40
2019-02-12T20:26:36.670Z,4.40
2019-02-12T20:29:05.843Z,4.20
2019-02-12T20:31:35.002Z,4.20
2019-02-12T20:34:04.358Z,4.00
2019-02-12T20:36:33.506Z,4.00
2019-02-12T20:39:02.950Z,3.90
2019-02-12T20:41:32.381Z,3.90
2019-02-12T20:44:01.867Z,3.90
2019-02-12T20:46:31.112Z,3.90
2019-02-12T20:49:00.291Z,3.90
2019-02-12T20:51:29.888Z,3.90
2019-02-12T20:53:59.706Z,3.90
2019-02-12T20:56:29.891Z,3.90
2019-02-12T20:58:59.777Z,3.90
2019-02-12T21:01:30.050Z,3.90
2019-02-12T21:03:59.351Z,4.00
2019-02-12T21:06:28.605Z,4.00
2019-02-12T21:08:58.459Z,4.00
2019-02-12T21:11:28.228Z,3.90
2019-02-12T21:13:57.480Z,3.80
2019-02-12T21:16:26.682Z,3.70
2019-02-12T21:18:56.044Z,3.60
2019-02-12T21:21:25.226Z,3.60
2019-02-12T21:23:54.362Z,3.60
2019-02-12T21:26:23.648Z,3.50
2019-02-12T21:28:53.313Z,3.40
2019-02-12T21:31:23.027Z,3.40
2019-02-12T21:33:52.855Z,3.40
2019-02-12T21:36:22.463Z,3.30
2019-02-12T21:38:51.635Z,3.20
2019-02-12T21:41:20.725Z,3.20
2019-02-12T21:43:50.156Z,3.20
2019-02-12T21:46:19.378Z,3.20
2019-02-12T21:48:48.715Z,3.20
2019-02-12T21:51:18.092Z,3.30
2019-02-12T21:53:47.218Z,3.30
2019-02-12T21:56:16.947Z,3.30
2019-02-12T21:58:46.047Z,3.20
2019-02-12T22:01:17.134Z,3.20
2019-02-12T22:03:46.724Z,3.20
2019-02-12T22:06:15.940Z,3.20
2019-02-12T22:08:45.326Z,3.20
2019-02-12T22:11:14.728Z,3.20
2019-02-12T22:13:44.105Z,3.20
2019-02-12T22:16:13.205Z,3.20
2019-02-12T22:18:42.304Z,3.20
2019-02-12T22:21:11.423Z,3.20
2019-02-12T22:23:40.815Z,3.10
2019-02-12T22:26:10.248Z,3.20
2019-02-12T22:28:39.360Z,3.20
2019-02-12T22:31:08.773Z,3.10
2019-02-12T22:33:37.900Z,3.00
2019-02-12T22:36:07.007Z,2.90
2019-02-12T22:38:36.388Z,2.90
2019-02-12T22:41:06.054Z,2.90
2019-02-12T22:43:35.179Z,2.90
2019-02-12T22:46:04.276Z,2.90
2019-02-12T22:48:33.920Z,2.80
2019-02-12T22:51:03.304Z,2.90
2019-02-12T22:53:32.408Z,2.90
2019-02-12T22:56:01.542Z,2.90
2019-02-12T22:58:30.648Z,2.80
2019-02-12T23:01:05.805Z,2.80
2019-02-12T23:03:35.898Z,2.90
2019-02-12T23:06:05.371Z,2.80
2019-02-12T23:08:34.616Z,2.80
2019-02-12T23:11:04.295Z,2.80
2019-02-12T23:13:33.433Z,2.80
2019-02-12T23:16:02.725Z,2.70
2019-02-12T23:18:31.827Z,2.80
2019-02-12T23:21:01.215Z,2.70
2019-02-12T23:23:30.842Z,2.60
2019-02-12T23:26:00.279Z,2.60
2019-02-12T23:28:29.906Z,2.70
2019-02-12T23:30:59.028Z,2.80
2019-02-12T23:33:28.391Z,2.80
2019-02-12T23:35:57.748Z,2.90
2019-02-12T23:38:27.110Z,3.00
2019-02-12T23:40:56.485Z,3.00
2019-02-12T23:43:25.856Z,3.00
2019-02-12T23:45:55.354Z,3.10
2019-02-12T23:48:25.186Z,3.00
2019-02-12T23:50:54.331Z,3.10
2019-02-12T23:53:23.421Z,3.20
2019-02-12T23:55:52.782Z,3.20
2019-02-12T23:58:22.234Z,3.20
